Time;durP1;ratioP1;P1;durP2;ratioP2;P2;SDS_P1;SDS_P2;PMS_P1;PMS_P2;Temp;Humidity;BMP_temperature;BMP_pressure;BME280_temperature;BME280_humidity;BME280_pressure;Samples;Min_cycle;Max_cycle;Signal;HPM_P1;HPM_P2
2022/12/22 03:25:51;;;;;;;49.97;4.80;;;;;;;20.94;59.04;98615.44;7310194;19;129016;-62
2022/12/22 03:28:18;;;;;;;14.15;2.85;;;;;;;20.94;59.11;98623.28;7312532;19;130094;-65
2022/12/22 03:30:44;;;;;;;49.15;4.65;;;;;;;20.89;59.51;98612.50;7313935;19;129132;-64
2022/12/22 03:33:09;;;;;;;25.80;3.23;;;;;;;20.86;59.11;98612.03;7313528;19;128806;-64
2022/12/22 03:35:34;;;;;;;30.38;3.53;;;;;;;20.84;60.28;98609.53;7313348;19;129511;-63
2022/12/22 03:38:02;;;;;;;33.85;3.67;;;;;;;20.85;59.99;98616.41;7311084;19;129611;-65
2022/12/22 03:40:29;;;;;;;42.38;4.30;;;;;;;20.84;60.09;98593.06;7316258;19;129084;-65
2022/12/22 03:48:22;;;;;;;46.15;4.82;;;;;;;20.85;60.57;98585.06;7309203;19;129403;-65
2022/12/22 03:50:49;;;;;;;39.75;4.10;;;;;;;20.84;61.00;98590.47;7311899;19;128995;-66
2022/12/22 03:53:14;;;;;;;32.95;3.63;;;;;;;20.79;60.57;98590.94;7312538;19;129017;-66
2022/12/22 03:55:39;;;;;;;33.35;4.00;;;;;;;20.84;61.59;98582.63;7313015;19;129634;-68
2022/12/22 03:58:05;;;;;;;25.33;2.80;;;;;;;20.80;61.41;98587.34;7311950;19;130547;-67
2022/12/22 04:00:30;;;;;;;26.73;3.03;;;;;;;20.70;60.84;98560.53;7311647;19;129888;-66
2022/12/22 04:02:57;;;;;;;35.45;3.88;;;;;;;20.80;61.60;98587.34;7312986;19;129725;-66
2022/12/22 04:05:22;;;;;;;80.63;6.57;;;;;;;20.80;60.46;98587.34;7309777;19;129301;-66
2022/12/22 04:07:48;;;;;;;27.67;3.75;;;;;;;20.80;61.37;98594.34;7312077;19;129755;-68
2022/12/22 04:12:57;;;;;;;28.17;3.35;;;;;;;20.78;60.95;98578.84;7312908;19;129346;-66
2022/12/22 04:15:28;;;;;;;53.60;4.97;;;;;;;20.78;60.68;98584.06;7312397;19;129461;-65
2022/12/22 04:17:54;;;;;;;41.30;4.10;;;;;;;20.77;61.22;98579.00;7313018;19;132704;-65
2022/12/22 04:20:21;;;;;;;31.20;3.70;;;;;;;20.71;60.65;98572.59;7309400;19;129313;-67
2022/12/22 04:22:47;;;;;;;47.63;5.00;;;;;;;20.58;59.38;98546.13;7311315;19;129264;-66
2022/12/22 04:25:12;;;;;;;71.35;6.53;;;;;;;20.71;59.25;98572.59;7310728;19;129855;-66
2022/12/22 04:27:38;;;;;;;53.03;5.38;;;;;;;20.79;59.41;98570.03;7310904;19;129089;-64
2022/12/22 04:30:04;;;;;;;23.85;2.92;;;;;;;20.81;59.37;98565.44;7312758;19;128866;-66
2022/12/22 04:32:30;;;;;;;42.17;4.60;;;;;;;20.88;58.96;98555.19;7311131;19;129122;-66
2022/12/22 04:34:55;;;;;;;50.15;4.80;;;;;;;20.97;58.94;98557.72;7316339;19;129614;-66
2022/12/22 04:37:20;;;;;;;27.33;3.13;;;;;;;21.15;57.80;98554.94;7312364;19;129486;-67
2022/12/22 04:39:46;;;;;;;81.07;7.00;;;;;;;21.32;57.86;98546.13;7308624;19;129155;-64
2022/12/22 04:42:11;;;;;;;13.15;2.13;;;;;;;21.51;57.01;98545.78;7308588;19;129402;-65
2022/12/22 04:44:36;;;;;;;48.95;4.53;;;;;;;21.66;56.18;98541.53;7310064;19;129979;-66
2022/12/22 04:47:02;;;;;;;37.30;3.78;;;;;;;21.78;55.85;98542.88;7308369;19;132724;-67
2022/12/22 04:49:27;;;;;;;62.00;5.75;;;;;;;21.83;55.93;98517.03;7308509;19;130752;-65
2022/12/22 04:51:52;;;;;;;33.57;3.50;;;;;;;22.02;55.37;98521.03;7306717;19;129836;-66
2022/12/22 04:54:18;;;;;;;43.10;4.22;;;;;;;22.14;54.91;98530.16;7310901;19;129690;-66
2022/12/22 04:56:43;;;;;;;27.88;3.15;;;;;;;22.17;55.22;98533.28;7312072;19;129499;-65
2022/12/22 04:59:08;;;;;;;33.80;3.42;;;;;;;22.24;55.02;98533.41;7309515;19;129576;-64
2022/12/22 05:01:34;;;;;;;24.63;3.08;;;;;;;22.29;54.75;98531.94;7303942;19;130187;-67
2022/12/22 05:03:59;;;;;;;35.35;3.40;;;;;;;22.35;54.16;98526.00;7310238;19;129664;-66
2022/12/22 05:06:25;;;;;;;29.95;3.38;;;;;;;22.42;54.06;98523.50;7306291;19;129311;-66
2022/12/22 05:08:50;;;;;;;46.55;4.43;;;;;;;22.49;54.57;98516.63;7308929;19;130218;-67
2022/12/22 05:11:15;;;;;;;48.28;4.55;;;;;;;22.52;54.42;98504.00;7308261;19;131076;-64
2022/12/22 05:13:41;;;;;;;65.73;5.77;;;;;;;22.54;53.73;98501.22;7309135;19;129550;-64
2022/12/22 05:16:09;;;;;;;42.13;4.35;;;;;;;22.58;53.53;98499.88;7304485;19;131036;-67
2022/12/22 05:18:36;;;;;;;38.95;4.00;;;;;;;22.62;54.21;98501.19;7309089;19;129367;-65
2022/12/22 05:21:10;;;;;;;48.60;4.63;;;;;;;22.66;53.38;98497.25;7307686;19;129502;-67
2022/12/22 05:23:35;;;;;;;31.13;3.17;;;;;;;22.66;53.48;98498.03;7311327;19;129646;-67
2022/12/22 05:26:01;;;;;;;28.27;3.17;;;;;;;22.72;53.81;98496.53;7310815;19;129017;-66
2022/12/22 05:28:27;;;;;;;39.30;3.80;;;;;;;22.73;53.46;98503.41;7316247;19;129271;-67
2022/12/22 05:30:52;;;;;;;45.50;4.37;;;;;;;22.74;53.99;98489.31;7307958;19;129003;-66
2022/12/22 05:33:19;;;;;;;37.47;3.73;;;;;;;22.71;53.43;98492.28;7310925;19;128997;-65
2022/12/22 05:35:44;;;;;;;46.63;3.90;;;;;;;22.70;53.24;98483.63;7309003;19;129542;-67
2022/12/22 05:38:09;;;;;;;27.00;2.85;;;;;;;22.67;53.80;98483.13;7310572;19;128954;-67
2022/12/22 05:40:35;;;;;;;40.35;3.65;;;;;;;22.65;53.88;98480.69;7310858;19;130176;-67
2022/12/22 05:43:00;;;;;;;34.40;3.37;;;;;;;22.53;54.39;98476.00;7309510;19;130071;-67
2022/12/22 05:45:25;;;;;;;20.60;2.72;;;;;;;22.37;54.71;98457.75;7308286;19;130065;-65
2022/12/22 05:47:51;;;;;;;36.88;3.55;;;;;;;22.39;55.45;98474.94;7308440;19;129394;-68
2022/12/22 05:50:20;;;;;;;37.00;3.47;;;;;;;22.30;54.71;98467.25;7307658;19;130703;-68
2022/12/22 05:52:46;;;;;;;34.88;3.50;;;;;;;22.18;54.97;98466.81;7309083;19;129292;-67
2022/12/22 05:55:12;;;;;;;38.47;3.93;;;;;;;22.10;55.77;98464.25;7309085;19;130211;-66
2022/12/22 05:57:38;;;;;;;44.50;4.47;;;;;;;22.00;55.61;98466.25;7309999;19;129806;-64
2022/12/22 06:00:05;;;;;;;45.05;3.92;;;;;;;21.94;56.27;98465.16;7308916;19;129305;-66
2022/12/22 06:02:30;;;;;;;28.63;3.55;;;;;;;21.89;56.58;98462.22;7308647;19;134269;-68
2022/12/22 06:04:56;;;;;;;44.30;4.32;;;;;;;21.78;56.39;98465.19;7308148;19;129278;-67
2022/12/22 06:07:21;;;;;;;16.75;2.58;;;;;;;21.75;57.02;98455.03;7308971;19;128826;-66
2022/12/22 06:09:46;;;;;;;41.53;3.97;;;;;;;21.70;57.01;98462.56;7310126;19;129160;-66
2022/12/22 06:12:13;;;;;;;33.38;3.35;;;;;;;21.69;57.05;98466.16;7307290;19;129685;-66
2022/12/22 06:14:38;;;;;;;32.88;3.50;;;;;;;21.66;57.18;98453.44;7308363;19;130076;-66
2022/12/22 06:17:04;;;;;;;26.63;2.90;;;;;;;21.67;56.44;98457.66;7309453;19;129594;-65
2022/12/22 06:19:29;;;;;;;58.00;4.53;;;;;;;21.63;56.74;98460.78;7309537;19;129110;-67
2022/12/22 06:21:55;;;;;;;24.90;2.97;;;;;;;21.64;56.67;98451.94;7325129;19;131276;-67
2022/12/22 06:24:20;;;;;;;25.25;2.75;;;;;;;21.62;57.40;98459.97;7313164;19;129642;-67
2022/12/22 06:26:45;;;;;;;38.70;3.78;;;;;;;21.63;56.88;98461.63;7310209;19;129901;-68
2022/12/22 06:29:11;;;;;;;36.65;3.58;;;;;;;21.61;56.73;98447.88;7316061;19;129268;-67
2022/12/22 06:31:36;;;;;;;44.53;4.25;;;;;;;21.67;57.09;98452.44;7313247;19;129185;-64
2022/12/22 06:34:02;;;;;;;21.10;2.15;;;;;;;21.68;56.85;98454.06;7315387;19;129732;-68
2022/12/22 06:36:27;;;;;;;36.17;3.58;;;;;;;21.58;56.79;98431.69;7314822;19;129574;-65
2022/12/22 06:38:52;;;;;;;30.95;3.05;;;;;;;21.65;56.98;98446.53;7314193;19;130188;-66
2022/12/22 06:43:07;;;;;;;28.15;3.08;;;;;;;21.72;56.71;98457.16;7314455;19;129112;-66
2022/12/22 06:44:03;;;;;;;39.85;3.42;;;;;;;21.71;57.11;98447.69;7314195;19;131304;-67
2022/12/22 06:46:29;;;;;;;36.63;3.45;;;;;;;21.71;56.82;98447.69;7310838;19;128920;-66
2022/12/22 06:48:54;;;;;;;45.22;3.85;;;;;;;21.75;56.68;98447.16;7313664;19;129547;-66
2022/12/22 06:51:19;;;;;;;68.10;5.77;;;;;;;21.82;54.43;98435.09;7295753;19;130565;-62
2022/12/22 06:53:45;;;;;;;37.20;3.70;;;;;;;22.10;54.42;98463.44;7287004;19;130960;-62
2022/12/22 06:56:10;;;;;;;46.73;5.30;;;;;;;22.31;53.88;98461.06;7300581;19;130463;-63
2022/12/22 06:58:35;;;;;;;73.60;6.73;;;;;;;22.53;54.46;98455.06;7301270;19;130422;-64
2022/12/22 07:01:00;;;;;;;68.20;6.53;;;;;;;22.72;53.93;98459.84;7300041;19;130289;-62
2022/12/22 07:03:26;;;;;;;62.58;6.13;;;;;;;22.87;53.95;98452.88;7297669;19;131504;-63
2022/12/22 07:05:51;;;;;;;56.87;5.20;;;;;;;23.02;53.01;98456.34;7296419;19;130430;-64
2022/12/22 07:08:16;;;;;;;73.43;6.50;;;;;;;23.16;52.85;98450.31;7297957;19;130751;-65
2022/12/22 07:10:58;;;;;;;65.67;5.63;;;;;;;23.22;53.33;98433.91;7298856;19;130679;-63
2022/12/22 07:13:34;;;;;;;76.80;6.78;;;;;;;23.32;53.48;98431.84;7298378;19;131070;-62
2022/12/22 07:16:04;;;;;;;65.80;5.63;;;;;;;23.34;53.26;98429.88;7298444;19;131376;-62
2022/12/22 07:18:35;;;;;;;75.65;6.50;;;;;;;23.31;53.10;98419.75;7302922;19;131469;-62
2022/12/22 07:21:03;;;;;;;63.60;5.60;;;;;;;23.29;53.08;98426.97;7305726;19;130238;-64
2022/12/22 07:23:28;;;;;;;66.03;5.43;;;;;;;23.28;52.69;98416.66;7307061;19;129672;-65
2022/12/22 07:25:54;;;;;;;50.40;4.72;;;;;;;23.21;53.66;98414.72;7305299;19;130984;-64
2022/12/22 07:28:19;;;;;;;42.37;4.00;;;;;;;23.20;53.31;98412.28;7306113;19;130346;-65
2022/12/22 07:30:45;;;;;;;70.28;5.68;;;;;;;23.27;53.04;98407.97;7303537;19;133456;-65
2022/12/22 07:33:10;;;;;;;76.33;6.30;;;;;;;23.25;53.69;98409.94;7306433;19;129638;-64
2022/12/22 07:35:36;;;;;;;67.50;5.50;;;;;;;23.37;53.02;98413.75;7305071;19;130328;-64
2022/12/22 07:38:01;;;;;;;60.90;5.27;;;;;;;23.38;52.90;98404.91;7307118;19;131092;-65
2022/12/22 07:40:26;;;;;;;63.47;5.18;;;;;;;23.52;52.74;98401.47;7303047;19;129560;-62
2022/12/22 07:42:59;;;;;;;61.73;5.70;;;;;;;23.44;52.37;98388.44;7302436;19;131282;-65
2022/12/22 07:45:25;;;;;;;60.47;5.25;;;;;;;23.61;52.57;98400.41;7301969;19;129565;-62
2022/12/22 07:47:57;;;;;;;43.13;3.97;;;;;;;23.58;52.98;98385.03;7303464;19;131283;-64
2022/12/22 07:50:27;;;;;;;91.75;7.15;;;;;;;23.69;52.51;98387.19;7300687;19;130485;-64
2022/12/22 07:52:52;;;;;;;68.57;6.00;;;;;;;23.71;52.22;98400.94;7302937;19;132138;-62
2022/12/22 07:55:18;;;;;;;59.10;5.13;;;;;;;23.69;52.23;98395.06;7302351;19;130481;-64
2022/12/22 07:57:44;;;;;;;54.55;5.45;;;;;;;23.74;49.64;98395.31;7304645;19;129856;-64
2022/12/22 08:00:11;;;;;;;55.53;4.50;;;;;;;23.81;50.32;98395.41;7301674;19;131726;-62
2022/12/22 08:02:36;;;;;;;59.30;5.18;;;;;;;23.91;51.25;98391.50;7299596;19;131311;-61
2022/12/22 08:05:01;;;;;;;69.63;6.83;;;;;;;23.90;51.40;98392.50;7302251;19;130980;-61
2022/12/22 08:07:27;;;;;;;42.08;4.43;;;;;;;23.88;51.34;98391.84;7304489;19;129408;-61
2022/12/22 08:09:52;;;;;;;74.45;6.50;;;;;;;24.01;51.19;98389.44;7302702;19;130436;-62
2022/12/22 08:12:17;;;;;;;72.83;7.07;;;;;;;24.03;51.19;98384.81;7301857;19;129632;-63
2022/12/22 08:14:44;;;;;;;60.92;6.18;;;;;;;24.10;51.30;98388.31;7300595;19;131379;-62
2022/12/22 08:17:11;;;;;;;56.78;5.60;;;;;;;24.09;51.29;98384.09;7301010;19;130913;-64
2022/12/22 08:19:36;;;;;;;62.78;5.82;;;;;;;24.03;51.15;98361.16;7301283;19;130532;-61
2022/12/22 08:22:03;;;;;;;60.10;6.00;;;;;;;24.06;51.52;98373.97;7300911;19;130366;-61
2022/12/22 08:24:28;;;;;;;47.53;4.80;;;;;;;23.98;51.48;98365.38;7299442;19;130503;-62
2022/12/22 08:26:58;;;;;;;52.92;5.65;;;;;;;23.88;52.02;98365.59;7298610;19;130894;-64
2022/12/22 08:29:32;;;;;;;73.95;6.38;;;;;;;23.69;52.31;98353.06;7302773;19;129756;-64
2022/12/22 08:31:59;;;;;;;59.45;5.60;;;;;;;23.68;52.47;98351.44;7299748;19;129439;-66
2022/12/22 08:34:24;;;;;;;72.30;6.60;;;;;;;23.66;52.94;98360.50;7303067;19;130316;-63
2022/12/22 08:36:55;;;;;;;57.58;5.85;;;;;;;23.66;52.42;98360.50;7301408;19;130476;-64
2022/12/22 08:39:22;;;;;;;56.28;5.22;;;;;;;23.73;52.64;98346.47;7300838;19;129994;-65
2022/12/22 08:41:50;;;;;;;61.70;5.75;;;;;;;23.79;52.18;98347.53;7297034;19;129545;-65
2022/12/22 08:44:22;;;;;;;50.05;5.20;;;;;;;23.65;47.36;98337.88;7301168;19;131051;-65
2022/12/22 08:46:49;;;;;;;49.88;5.60;;;;;;;23.63;48.36;98340.69;7300101;19;129471;-65
2022/12/22 08:49:15;;;;;;;48.30;4.85;;;;;;;23.78;49.40;98328.38;7297337;19;132299;-65
2022/12/22 08:51:40;;;;;;;55.57;5.47;;;;;;;23.86;49.43;98325.63;7298285;19;129503;-65
2022/12/22 08:54:06;;;;;;;51.07;5.17;;;;;;;23.99;49.96;98317.09;7302150;19;130167;-65
2022/12/22 08:56:31;;;;;;;49.23;5.07;;;;;;;24.00;49.77;98316.91;7302449;19;131279;-62
2022/12/22 08:58:56;;;;;;;28.30;3.38;;;;;;;24.12;49.99;98322.50;7306775;19;131881;-64
2022/12/22 09:01:22;;;;;;;46.80;4.90;;;;;;;24.11;50.63;98323.50;7305775;19;131918;-63
2022/12/22 09:03:52;;;;;;;30.30;3.27;;;;;;;24.20;49.79;98317.94;7310771;19;129281;-65
2022/12/22 09:06:20;;;;;;;27.90;3.15;;;;;;;24.22;50.07;98315.94;7307613;19;129824;-63
2022/12/22 09:08:46;;;;;;;37.03;3.88;;;;;;;24.17;50.40;98304.34;7308711;19;130564;-65
2022/12/22 09:11:11;;;;;;;55.93;5.03;;;;;;;24.26;50.57;98311.91;7308103;19;129884;-65
2022/12/22 09:13:37;;;;;;;43.42;4.35;;;;;;;24.25;50.09;98298.97;7302060;19;131524;-64
2022/12/22 09:16:07;;;;;;;32.77;3.70;;;;;;;24.34;50.13;98311.81;7307912;19;129375;-66
2022/12/22 09:18:33;;;;;;;28.23;3.33;;;;;;;24.42;50.47;98311.69;7308199;19;132162;-64
2022/12/22 09:20:58;;;;;;;59.47;5.90;;;;;;;24.41;50.84;98312.66;7303639;19;129649;-64
2022/12/22 09:23:24;;;;;;;29.30;3.80;;;;;;;24.33;50.92;98310.19;7306357;19;128925;-65
2022/12/22 09:25:50;;;;;;;31.02;3.60;;;;;;;24.21;50.51;98298.53;7306324;19;129174;-65
2022/12/22 09:28:15;;;;;;;34.87;3.67;;;;;;;24.12;51.10;98304.09;7308087;19;130102;-64
2022/12/22 09:30:40;;;;;;;39.30;3.80;;;;;;;24.01;52.04;98305.44;7307630;19;129662;-63
2022/12/22 09:33:06;;;;;;;28.13;3.30;;;;;;;23.96;51.68;98304.31;7307816;19;130119;-64
2022/12/22 09:35:31;;;;;;;37.33;3.87;;;;;;;23.92;51.76;98295.19;7305697;19;129488;-64
2022/12/22 09:37:56;;;;;;;31.73;3.37;;;;;;;23.94;51.66;98303.69;7306736;19;130194;-65
2022/12/22 09:40:23;;;;;;;43.05;4.25;;;;;;;24.01;51.91;98308.06;7307721;19;129564;-63
2022/12/22 09:42:49;;;;;;;31.48;3.42;;;;;;;24.05;51.54;98293.53;7305857;19;129798;-63
2022/12/22 09:45:19;;;;;;;52.83;5.13;;;;;;;24.05;51.90;98290.91;7305637;19;129262;-65
2022/12/22 09:47:52;;;;;;;34.33;3.95;;;;;;;24.12;51.45;98277.84;7305878;19;131973;-65
2022/12/22 09:50:22;;;;;;;49.15;5.00;;;;;;;24.14;52.05;98279.31;7306812;19;130162;-67
2022/12/22 09:52:53;;;;;;;34.78;4.22;;;;;;;24.20;51.27;98281.16;7303901;19;130135;-61
2022/12/22 09:55:24;;;;;;;32.88;3.85;;;;;;;24.33;51.70;98275.22;7308505;19;129222;-63
2022/12/22 09:57:52;;;;;;;28.30;3.35;;;;;;;24.36;51.47;98261.72;7309342;19;130092;-64
2022/12/22 10:00:21;;;;;;;64.60;5.88;;;;;;;24.24;51.18;98244.84;7311720;19;130248;-63
2022/12/22 10:03:11;;;;;;;41.55;4.13;;;;;;;24.40;50.72;98265.56;7315001;19;130795;-64
2022/12/22 10:05:42;;;;;;;43.75;4.68;;;;;;;24.44;50.76;98259.75;7312338;19;129860;-64
2022/12/22 10:08:14;;;;;;;32.97;3.67;;;;;;;24.49;51.34;98253.94;7314508;19;129433;-63
2022/12/22 10:10:40;;;;;;;27.95;3.30;;;;;;;24.53;51.30;98243.88;7314332;19;129291;-64
2022/12/22 10:13:11;;;;;;;46.90;5.17;;;;;;;24.64;50.18;98248.59;7312681;19;129146;-64
2022/12/22 10:15:39;;;;;;;34.13;3.88;;;;;;;24.53;48.48;98228.09;7313428;19;129675;-63
2022/12/22 10:18:22;;;;;;;42.88;4.80;;;;;;;24.49;48.41;98225.03;7312028;19;130077;-65
2022/12/22 10:21:11;;;;;;;51.13;5.18;;;;;;;24.27;48.55;98232.16;7309127;19;130663;-63
2022/12/22 10:23:41;;;;;;;38.80;4.45;;;;;;;24.05;44.30;98209.53;7313756;19;129900;-63
2022/12/22 10:26:11;;;;;;;24.08;3.30;;;;;;;23.78;45.07;98210.25;7309259;19;129218;-61
2022/12/22 10:28:49;;;;;;;40.63;4.68;;;;;;;23.66;46.00;98224.88;7311315;19;130105;-62
2022/12/22 10:31:32;;;;;;;24.95;3.15;;;;;;;23.52;45.85;98220.47;7311533;19;129299;-64
2022/12/22 10:34:14;;;;;;;51.20;5.00;;;;;;;23.55;47.14;98211.41;7311615;19;129264;-64
2022/12/22 10:36:45;;;;;;;32.97;3.88;;;;;;;23.46;47.28;98208.09;7312866;19;129615;-65
2022/12/22 10:39:18;;;;;;;37.90;4.05;;;;;;;23.48;47.54;98221.84;7312706;19;132544;-62
2022/12/22 10:41:47;;;;;;;44.50;5.10;;;;;;;23.51;48.19;98218.84;7311134;19;129792;-63
2022/12/22 10:44:12;;;;;;;24.92;3.05;;;;;;;23.53;48.06;98216.84;7312523;19;130092;-61
2022/12/22 10:46:42;;;;;;;31.00;3.50;;;;;;;23.56;48.06;98208.59;7311718;19;129134;-63
2022/12/22 10:49:18;;;;;;;30.85;3.50;;;;;;;23.59;47.48;98208.22;7312020;19;130120;-65
2022/12/22 10:51:47;;;;;;;35.42;3.88;;;;;;;23.59;48.03;98212.66;7311676;19;129221;-64
2022/12/22 10:54:31;;;;;;;32.05;3.75;;;;;;;23.71;47.88;98214.63;7310168;19;130715;-62
2022/12/22 10:57:05;;;;;;;15.75;2.65;;;;;;;23.74;47.31;98214.25;7314308;19;129287;-62
2022/12/22 10:59:32;;;;;;;43.60;4.50;;;;;;;23.73;47.84;98215.25;7313237;19;129133;-63
2022/12/22 11:02:32;;;;;;;52.10;5.25;;;;;;;23.77;47.56;98206.00;7308725;19;130837;-64
2022/12/22 11:05:09;;;;;;;36.90;4.05;;;;;;;23.84;47.40;98211.31;7310809;19;129360;-63
2022/12/22 11:07:39;;;;;;;;;;;;;;;23.84;47.17;98201.63;7310640;19;129681;-64
2022/12/22 11:10:13;;;;;;;37.90;3.85;;;;;;;23.93;46.98;98192.59;7312623;19;129188;-62
2022/12/22 11:12:41;;;;;;;26.48;3.15;;;;;;;23.85;47.18;98174.38;7313628;19;130420;-64
2022/12/22 11:15:44;;;;;;;47.55;5.32;;;;;;;23.92;47.00;98193.63;7314193;19;130773;-62
2022/12/22 11:18:17;;;;;;;43.97;4.43;;;;;;;23.82;47.05;98176.56;7313795;19;129682;-66
2022/12/22 11:20:59;;;;;;;24.73;2.75;;;;;;;23.74;47.86;98179.31;7312472;19;129588;-64
2022/12/22 11:23:52;;;;;;;25.58;3.13;;;;;;;23.63;47.69;98175.38;7310719;19;129587;-62
2022/12/22 11:26:17;;;;;;;21.33;2.53;;;;;;;23.51;48.16;98169.00;7310027;19;129186;-64
2022/12/22 11:29:00;;;;;;;43.23;4.33;;;;;;;23.44;48.83;98173.34;7310504;19;129571;-64
2022/12/22 11:31:34;;;;;;;27.92;3.25;;;;;;;23.35;48.37;98143.00;7311930;19;129604;-63
2022/12/22 11:34:02;;;;;;;16.70;2.53;;;;;;;23.47;48.61;98159.88;7313380;19;129394;-64
2022/12/22 11:36:59;;;;;;;41.05;4.13;;;;;;;23.50;48.01;98149.03;7307690;19;129527;-63
2022/12/22 11:39:36;;;;;;;19.58;2.85;;;;;;;23.55;48.11;98148.47;7310073;19;129600;-64
2022/12/22 11:42:16;;;;;;;78.00;7.30;;;;;;;23.59;48.22;98150.50;7307939;19;128936;-62
2022/12/22 11:45:01;;;;;;;43.85;4.13;;;;;;;23.58;48.05;98127.09;7310749;19;130995;-62
2022/12/22 11:47:26;;;;;;;44.20;4.50;;;;;;;23.70;47.91;98147.38;7309990;19;129250;-64
2022/12/22 11:50:30;;;;;;;22.33;3.10;;;;;;;23.74;47.55;98137.31;7312215;19;129573;-63
2022/12/22 11:53:14;;;;;;;26.77;3.00;;;;;;;23.81;47.75;98138.19;7309992;19;129275;-63
2022/12/22 11:56:18;;;;;;;23.80;2.88;;;;;;;23.83;46.98;98129.13;7311041;19;132779;-61
2022/12/22 11:59:02;;;;;;;28.77;3.30;;;;;;;23.91;47.74;98133.44;7311593;19;129112;-64
2022/12/22 12:01:55;;;;;;;33.33;3.70;;;;;;;23.92;47.58;98127.19;7310774;19;129214;-63
2022/12/22 12:04:29;;;;;;;42.20;4.45;;;;;;;24.16;47.03;98127.59;7312521;19;129169;-63
2022/12/22 12:06:58;;;;;;;33.92;3.55;;;;;;;24.25;46.74;98121.19;7304235;19;133166;-66
2022/12/22 12:09:26;;;;;;;24.33;2.85;;;;;;;24.04;47.25;98108.13;7310551;19;130327;-64
2022/12/22 12:12:08;;;;;;;36.95;4.05;;;;;;;24.03;47.57;98116.22;7307655;19;129739;-62
2022/12/22 12:14:42;;;;;;;40.28;4.38;;;;;;;24.01;47.03;98119.03;7310495;19;129200;-63
2022/12/22 12:17:23;;;;;;;36.28;3.55;;;;;;;23.80;47.39;98099.84;7306724;19;130254;-63
2022/12/22 12:19:54;;;;;;;31.88;3.42;;;;;;;23.78;47.42;98126.28;7311630;19;130475;-61
2022/12/22 12:22:57;;;;;;;30.27;3.35;;;;;;;23.67;48.54;98123.34;7307536;19;129767;-62
2022/12/22 12:25:31;;;;;;;446.55;31.70;;;;;;;23.57;48.68;98121.03;5966413;19;10000103;-64
2022/12/22 12:28:18;;;;;;;29.88;3.25;;;;;;;23.50;48.85;98120.16;7251128;19;130498;-63
2022/12/22 12:30:57;;;;;;;;;;;;;;;23.48;48.06;98114.28;5959151;19;10000846;-65
2022/12/22 12:33:29;;;;;;;;;;;;;;;23.52;48.51;98114.72;7277217;19;130554;-62
2022/12/22 12:35:57;;;;;;;40.15;4.55;;;;;;;23.64;48.32;98121.91;7309266;19;129035;-64
2022/12/22 12:38:33;;;;;;;29.35;3.35;;;;;;;23.66;48.62;98122.53;7312736;19;129669;-61
2022/12/22 12:41:06;;;;;;;19.13;2.50;;;;;;;23.67;48.22;98121.53;7309323;19;129500;-62
2022/12/22 12:43:33;;;;;;;36.10;3.40;;;;;;;23.64;48.47;98113.22;7308398;19;129752;-65
2022/12/22 12:45:58;;;;;;;;;;;;;;;23.68;48.71;98128.41;7309279;19;129695;-65
2022/12/22 12:48:23;;;;;;;29.23;3.23;;;;;;;23.76;47.75;98120.41;7307268;19;130490;-64
2022/12/22 12:50:51;;;;;;;25.80;3.00;;;;;;;23.77;48.63;98116.75;7308730;19;129662;-66
2022/12/22 12:53:19;;;;;;;44.53;4.18;;;;;;;23.80;47.71;98119.00;7310182;19;129412;-62
2022/12/22 12:55:53;;;;;;;22.70;2.58;;;;;;;23.84;48.44;98122.88;7308709;19;129888;-62
2022/12/22 12:58:49;;;;;;;417.55;29.13;;;;;;;23.84;48.33;98117.63;5975487;19;10000736;-61
2022/12/22 13:01:17;;;;;;;18.35;2.15;;;;;;;23.89;47.71;98115.25;7263868;19;130799;-64
2022/12/22 13:03:43;;;;;;;391.25;27.40;;;;;;;23.95;47.43;98116.28;7300223;19;131734;-63
2022/12/22 13:06:31;;;;;;;215.90;15.37;;;;;;;23.89;47.83;98094.25;5954543;19;10000513;-63
2022/12/22 13:09:05;;;;;;;31.43;3.57;;;;;;;24.10;47.77;98117.03;7285210;19;130085;-63
2022/12/22 13:11:36;;;;;;;36.83;3.75;;;;;;;24.10;47.56;98117.88;7308004;19;129260;-64
2022/12/22 13:14:02;;;;;;;22.83;3.47;;;;;;;24.18;47.39;98115.09;7306839;19;129761;-64
2022/12/22 13:16:31;;;;;;;26.85;3.08;;;;;;;24.19;47.40;98116.72;7309246;19;129805;-62
2022/12/22 13:18:58;;;;;;;26.25;3.15;;;;;;;24.03;47.46;98097.81;7309828;19;129596;-62
2022/12/22 13:21:26;;;;;;;31.13;3.30;;;;;;;24.01;48.31;98119.03;7307963;19;129432;-65
2022/12/22 13:23:55;;;;;;;34.05;3.50;;;;;;;23.90;48.67;98114.25;7309232;19;129163;-62
2022/12/22 13:26:24;;;;;;;23.75;2.83;;;;;;;23.77;49.39;98119.38;7308730;19;129618;-65
2022/12/22 13:29:01;;;;;;;28.73;3.25;;;;;;;23.72;49.74;98118.31;7312337;19;129159;-62
2022/12/22 13:31:27;;;;;;;30.33;3.35;;;;;;;23.72;49.48;98134.06;7314272;19;129539;-63
2022/12/22 13:34:27;;;;;;;36.03;3.43;;;;;;;23.74;49.20;98117.16;7314705;19;129263;-65
2022/12/22 13:36:54;;;;;;;31.30;3.28;;;;;;;23.80;49.20;98121.63;7314672;19;129439;-65
2022/12/22 13:39:20;;;;;;;47.25;4.20;;;;;;;23.85;49.01;98124.50;7316391;19;129240;-63
2022/12/22 13:41:48;;;;;;;26.27;3.33;;;;;;;23.92;49.36;98116.66;7315654;19;129764;-64
2022/12/22 13:44:22;;;;;;;26.33;2.42;;;;;;;24.01;48.90;98123.44;7316315;19;128876;-61
2022/12/22 13:46:47;;;;;;;18.27;2.60;;;;;;;24.09;48.62;98116.25;7313117;19;131022;-64
2022/12/22 13:49:17;;;;;;;39.63;3.43;;;;;;;24.18;48.50;98125.59;7314565;19;129177;-63
2022/12/22 13:51:44;;;;;;;51.25;5.22;;;;;;;24.18;48.58;98120.34;7312780;19;130681;-62
2022/12/22 13:54:18;;;;;;;27.00;2.70;;;;;;;24.13;48.93;98106.19;7316465;19;129495;-64
2022/12/22 13:56:48;;;;;;;26.88;2.83;;;;;;;24.31;48.64;98123.03;7314720;19;129260;-61
2022/12/22 13:59:21;;;;;;;28.17;3.13;;;;;;;24.39;48.24;98120.25;7315271;19;129817;-62
2022/12/22 14:01:49;;;;;;;46.45;4.90;;;;;;;24.44;48.94;98110.00;7310419;19;129025;-63
2022/12/22 14:04:14;;;;;;;30.55;2.83;;;;;;;24.43;47.94;98113.63;7316421;19;129154;-63
2022/12/22 14:06:40;;;;;;;35.63;3.67;;;;;;;24.52;48.53;98126.59;7311131;19;129645;-63
2022/12/22 14:09:22;;;;;;;35.40;3.40;;;;;;;24.46;48.26;98121.13;7313441;19;129580;-63
2022/12/22 14:11:55;;;;;;;32.00;3.85;;;;;;;24.44;48.15;98123.13;7309730;19;130856;-63
2022/12/22 14:14:35;;;;;;;65.60;5.85;;;;;;;24.28;49.04;98123.44;7311235;19;128972;-63
2022/12/22 14:17:01;;;;;;;36.47;3.53;;;;;;;24.08;48.88;98101.47;7314303;19;129538;-61
2022/12/22 14:19:33;;;;;;;27.15;3.15;;;;;;;24.03;49.32;98122.25;7314382;19;129204;-63
2022/12/22 14:22:22;;;;;;;29.13;3.08;;;;;;;23.91;49.84;98129.00;7309186;19;129164;-62
2022/12/22 14:24:53;;;;;;;32.15;3.25;;;;;;;23.87;50.11;98124.31;7315682;19;128800;-64
2022/12/22 14:27:39;;;;;;;44.35;4.20;;;;;;;23.85;50.59;98121.88;7310216;19;130526;-64
2022/12/22 14:30:14;;;;;;;32.95;3.60;;;;;;;23.88;50.15;98124.13;7311782;19;132167;-65
2022/12/22 14:32:42;;;;;;;41.10;3.80;;;;;;;23.91;49.88;98131.63;7311290;19;129677;-63
2022/12/22 14:35:25;;;;;;;59.63;5.40;;;;;;;23.95;50.12;98132.84;7310564;19;130718;-64
2022/12/22 14:38:16;;;;;;;40.47;4.03;;;;;;;24.00;49.96;98129.69;7311165;19;131439;-62
2022/12/22 14:40:43;;;;;;;30.67;2.75;;;;;;;24.12;49.31;98131.63;7306346;19;130194;-62
2022/12/22 14:43:17;;;;;;;28.40;2.97;;;;;;;24.21;49.18;98135.72;7313629;19;129550;-64
2022/12/22 14:45:44;;;;;;;25.52;2.55;;;;;;;24.28;49.27;98141.81;7314419;19;129801;-62
2022/12/22 14:48:18;;;;;;;36.38;3.28;;;;;;;24.36;49.15;98144.28;7309587;19;129908;-62
2022/12/22 14:50:51;;;;;;;44.53;3.97;;;;;;;24.42;48.72;98146.19;7311198;19;129177;-61
2022/12/22 14:53:35;;;;;;;67.13;5.93;;;;;;;24.40;48.65;98149.97;7310608;19;128845;-61
2022/12/22 14:56:01;;;;;;;38.80;3.58;;;;;;;24.41;48.95;98162.13;7312735;19;130138;-63
2022/12/22 14:58:37;;;;;;;28.00;2.97;;;;;;;24.32;49.34;98158.84;7312697;19;129728;-65
2022/12/22 15:01:27;;;;;;;26.00;2.67;;;;;;;24.16;49.29;98161.72;7311814;19;129841;-64
2022/12/22 15:04:00;;;;;;;24.00;3.15;;;;;;;24.11;49.53;98163.31;7312423;19;129619;-62